2 de julho de 2022

Hora Código Clima Temp. Visibilidade Tecto Vento METAR/SPECI
10:30 da manhã
V
68 °F 6¼ mi+ - Var Var 3 kt METAR LFBE 020830Z AUTO VRB03KT CAVOK 20/14 Q1020 NOSIG
10:00 da manhã
V
64 °F 6¼ mi+ - 050° 050° 3 kt METAR LFBE 020800Z AUTO 05003KT 010V100 CAVOK 18/13 Q1020 NOSIG
9:30 da manhã
V
63 °F 6¼ mi+ - 030° 030° 3 kt METAR LFBE 020730Z AUTO 03003KT 360V070 CAVOK 17/14 Q1020 NOSIG
9:00 da manhã
V
59 °F 6¼ mi+ - 040° 040° 3 kt METAR LFBE 020700Z AUTO 04003KT 010V090 CAVOK 15/13 Q1020 NOSIG
8:30 da manhã
V
55 °F 6¼ mi+ - 040° 040° 4 kt METAR LFBE 020630Z AUTO 04004KT 010V070 CAVOK 13/12 Q1020 NOSIG
8:00 da manhã
L
54 °F 6¼ mi+ - 070° 070° 3 kt METAR LFBE 020600Z AUTO 07003KT 9999 VV/// 12/11 Q1020 BECMG NSC
7:30 da manhã
L
50 °F ⅜ mi - 050° 050° 4 kt METAR LFBE 020530Z AUTO 05004KT 5000 0600 R27/0900D BCFG VV/// 10/10 Q1020 BECMG NSC
7:00 da manhã
V
48 °F 6¼ mi+ - 060° 060° 3 kt METAR LFBE 020500Z AUTO 06003KT CAVOK 09/08 Q1020 TEMPO 2000 BR
6:30 da manhã
L
46 °F ⅝ mi - 090° 090° 2 kt METAR LFBE 020430Z AUTO 09002KT 2300 1100 R27/P2500 BR NSC 08/08 Q1019 BECMG 9999 NSW
6:00 da manhã
V
48 °F 5⅝ mi - 080° 080° 2 kt METAR LFBE 020400Z AUTO 08002KT 9000 NSC 09/08 Q1019 NOSIG
5:30 da manhã
V
48 °F 6¼ mi+ - Var Var 2 kt METAR LFBE 020330Z AUTO VRB02KT CAVOK 09/08 Q1020 NOSIG
5:00 da manhã
V
48 °F 6¼ mi+ - 070° 070° 3 kt METAR LFBE 020300Z AUTO 07003KT CAVOK 09/08 Q1020 NOSIG
4:30 da manhã
V
48 °F 6¼ mi+ - 070° 070° 3 kt METAR LFBE 020230Z AUTO 07003KT CAVOK 09/08 Q1020 NOSIG
4:00 da manhã
M
48 °F 3⅛ mi - 080° 080° 1 kt METAR LFBE 020200Z AUTO 08001KT 5000 BR NSC 09/08 Q1020 NOSIG
3:30 da manhã
V
50 °F 6¼ mi+ - 090° 090° 2 kt METAR LFBE 020130Z AUTO 09002KT CAVOK 10/09 Q1020 NOSIG
3:00 da manhã
V
50 °F 6¼ mi+ - Var 000° 0 kt METAR LFBE 020100Z AUTO 00000KT CAVOK 10/09 Q1020 NOSIG
2:30 da manhã
V
50 °F 6¼ mi+ - Var Var 2 kt METAR LFBE 020030Z AUTO VRB02KT CAVOK 10/10 Q1021 NOSIG
2:00 da manhã
V
50 °F 6¼ mi+ - Var Var 2 kt METAR LFBE 020000Z AUTO VRB02KT CAVOK 10/10 Q1021 NOSIG
1:30 da manhã
V
52 °F 6¼ mi+ - 080° 080° 3 kt METAR LFBE 012330Z AUTO 08003KT CAVOK 11/10 Q1021
1:00 da manhã
V
52 °F 6¼ mi+ - Var 000° 0 kt METAR LFBE 012300Z AUTO 00000KT CAVOK 11/11 Q1021
12:30 da manhã
V
54 °F 6¼ mi+ - Var Var 2 kt METAR LFBE 012230Z AUTO VRB02KT CAVOK 12/10 Q1021
12:00 da manhã
V
54 °F 6¼ mi+ - 080° 080° 2 kt METAR LFBE 012200Z AUTO 08002KT CAVOK 12/11 Q1021

1 de julho de 2022

Hora Código Clima Temp. Visibilidade Tecto Vento METAR/SPECI
11:30 da tarde
V
55 °F 6¼ mi+ - Var 000° 0 kt METAR LFBE 012130Z AUTO 00000KT CAVOK 13/11 Q1021
11:00 da tarde
V
57 °F 6¼ mi+ - Var Var 2 kt METAR LFBE 012100Z AUTO VRB02KT CAVOK 14/12 Q1021
10:30 da tarde
V
59 °F 6¼ mi+ - Var 000° 0 kt METAR LFBE 012030Z AUTO 00000KT CAVOK 15/12 Q1021
10:00 da tarde
V
63 °F 6¼ mi+ - 130° 130° 1 kt METAR LFBE 012000Z AUTO 13001KT CAVOK 17/12 Q1020 NOSIG
9:30 da tarde
V
68 °F 6¼ mi+ - 020° 020° 2 kt METAR LFBE 011930Z AUTO 02002KT CAVOK 20/11 Q1020 NOSIG
9:00 da tarde
V
70 °F 6¼ mi+ - 020° 020° 4 kt METAR LFBE 011900Z AUTO 02004KT CAVOK 21/10 Q1020 NOSIG
8:30 da tarde
V
72 °F 6¼ mi+ - Var Var 2 kt METAR LFBE 011830Z AUTO VRB02KT CAVOK 22/10 Q1020 NOSIG
8:00 da tarde
V
72 °F 6¼ mi+ - 010° 010° 6 kt METAR LFBE 011800Z AUTO 01006KT CAVOK 22/10 Q1020 NOSIG
7:30 da tarde
V
73 °F 6¼ mi+ - 010° 010° 5 kt METAR LFBE 011730Z AUTO 01005KT 350V060 CAVOK 23/10 Q1020 NOSIG
7:00 da tarde
V
73 °F 6¼ mi+ - 010° 010° 4 kt METAR LFBE 011700Z AUTO 01004KT 310V080 CAVOK 23/10 Q1020 NOSIG
6:30 da tarde
V
73 °F 6¼ mi+ - 030° 030° 5 kt METAR LFBE 011630Z AUTO 03005KT 350V080 CAVOK 23/10 Q1020 NOSIG
6:00 da tarde
V
72 °F 6¼ mi+ - 040° 040° 5 kt METAR LFBE 011600Z AUTO 04005KT 310V110 CAVOK 22/11 Q1020 NOSIG
5:30 da tarde
V
73 °F 6¼ mi+ - 330° 330° 6 kt METAR LFBE 011530Z AUTO 33006KT 280V020 CAVOK 23/10 Q1021 NOSIG
5:00 da tarde
V
72 °F 6¼ mi+ - Var Var 4 kt METAR LFBE 011500Z AUTO VRB04KT CAVOK 22/11 Q1021 NOSIG
4:30 da tarde
V
70 °F 6¼ mi+ - 030° 030° 5 kt METAR LFBE 011430Z AUTO 03005KT 330V070 CAVOK 21/11 Q1021 NOSIG
4:00 da tarde
V
73 °F 6¼ mi+ - Var Var 5 kt METAR LFBE 011400Z AUTO VRB05KT CAVOK 23/12 Q1021 NOSIG
3:30 da tarde
V
72 °F 6¼ mi+ - 300° 300° 4 kt METAR LFBE 011330Z AUTO 30004KT 220V360 CAVOK 22/11 Q1021 NOSIG
3:00 da tarde
V
68 °F 6¼ mi+ - 030° 030° 4 kt METAR LFBE 011300Z AUTO 03004KT 280V070 9999 FEW046 20/10 Q1021 NOSIG
2:30 da tarde
V
72 °F 6¼ mi+ - Var Var 3 kt METAR LFBE 011230Z AUTO VRB03KT CAVOK 22/11 Q1021 NOSIG
2:00 da tarde
V
68 °F 6¼ mi+ 5.200 ft 030° 030° 4 kt METAR LFBE 011200Z AUTO 03004KT 340V070 9999 SCT044 OVC052 20/11 Q1021 NOSIG
1:30 da tarde
V
70 °F 6¼ mi+ - 140° 140° 3 kt METAR LFBE 011130Z AUTO 14003KT 050V210 9999 SCT045 21/11 Q1022 NOSIG
1:00 da tarde
V
68 °F 6¼ mi+ 4.300 ft 300° 300° 4 kt METAR LFBE 011100Z AUTO 30004KT 250V340 9999 BKN043 BKN050 20/11 Q1022 NOSIG
12:30 da tarde
V
68 °F 6¼ mi+ - 160° 160° 4 kt METAR LFBE 011030Z AUTO 16004KT 100V220 9999 FEW046 20/10 Q1022 NOSIG
12:00 da tarde
V
68 °F 6¼ mi+ - 080° 080° 5 kt METAR LFBE 011000Z AUTO 08005KT 030V140 CAVOK 20/11 Q1022 NOSIG
11:30 da manhã
V
66 °F 6¼ mi+ - 060° 060° 4 kt METAR LFBE 010930Z AUTO 06004KT 010V090 9999 FEW022 19/12 Q1022 NOSIG
11:00 da manhã
V
64 °F 6¼ mi+ - Var Var 3 kt METAR LFBE 010900Z AUTO VRB03KT 9999 FEW015 18/13 Q1022 NOSIG
10:30 da manhã
V
61 °F 6¼ mi+ - 050° 050° 3 kt METAR LFBE 010830Z AUTO 05003KT 350V100 9999 FEW008 16/14 Q1021 NOSIG
10:00 da manhã
I
57 °F 6¼ mi+ 600 ft Var 000° 0 kt METAR LFBE 010800Z AUTO 00000KT 9999 BKN006 14/14 Q1022 BECMG NSC
9:30 da manhã
L
55 °F 6¼ mi+ 400 ft Var Var 3 kt METAR LFBE 010730Z AUTO VRB03KT 9999 OVC004 13/13 Q1021 BECMG NSC
9:00 da manhã
L
54 °F 6¼ mi+ 200 ft Var Var 3 kt METAR LFBE 010700Z AUTO VRB03KT 9999 OVC002 12/12 Q1021 TEMPO 0300 BECMG NSC
8:30 da manhã
L
54 °F ½ mi - 080° 080° 3 kt METAR LFBE 010630Z AUTO 08003KT 040V120 0750 R27/1300U FG VV/// 12/11 Q1021 BECMG CAVOK
8:00 da manhã
L
52 °F ¼ mi - 120° 120° 4 kt METAR LFBE 010600Z AUTO 12004KT 070V150 0350 R27/0700U FG VV/// 11/11 Q1021 BECMG CAVOK
7:30 da manhã
L
52 °F ¼ mi - 080° 080° 3 kt METAR LFBE 010530Z AUTO 08003KT 060V130 0350 R27/0450N FG VV/// 11/11 Q1021 BECMG CAVOK
7:00 da manhã
L
52 °F ¼ mi - Var Var 3 kt METAR LFBE 010500Z AUTO VRB03KT 0400 R27/0550U FG VV/// 11/11 Q1021 BECMG CAVOK
6:30 da manhã
L
52 °F ¼ mi - Var Var 2 kt METAR LFBE 010430Z AUTO VRB02KT 0450 0400 R27/0550N FG VV/// 11/11 Q1021 BECMG CAVOK
6:00 da manhã
L
52 °F ¼ mi - Var Var 2 kt METAR LFBE 010400Z AUTO VRB02KT 0500 R27/0650N FG VV/// 11/11 Q1021 TEMPO 0300 FG
5:30 da manhã
L
52 °F ⅜ mi - 080° 080° 2 kt METAR LFBE 010330Z AUTO 08002KT 0700 R27/0800U FG VV/// 11/11 Q1021 TEMPO 0300 FG
5:00 da manhã
L
52 °F ⅛ mi - 080° 080° 3 kt METAR LFBE 010300Z AUTO 08003KT 0200 R27/0225N FG VV/// 11/11 Q1020 NOSIG
4:30 da manhã
L
52 °F ¼ mi - 080° 080° 3 kt METAR LFBE 010230Z AUTO 08003KT 0350 R27/0375N FG VV/// 11/11 Q1021 NOSIG
4:00 da manhã
L
52 °F ⅜ mi - 060° 060° 2 kt METAR LFBE 010200Z AUTO 06002KT 0750 0650 R27/0900D FG VV/// 11/10 Q1020 TEMPO 0300 FG
3:30 da manhã
L
50 °F ⅛ mi - 080° 080° 2 kt METAR LFBE 010130Z AUTO 08002KT 0350 0300 R27/0350U FG VV/// 10/09 Q1020 NOSIG
3:00 da manhã
L
50 °F ¼ mi - 090° 090° 2 kt METAR LFBE 010100Z AUTO 09002KT 0450 0400 R27/0650U FG VV/// 10/10 Q1020 TEMPO 0300 FG
2:30 da manhã
L
50 °F ⅜ mi - Var 000° 0 kt METAR LFBE 010030Z AUTO 00000KT 0650 0550 R27/0900U FG VV/// 10/10 Q1021 TEMPO 0300 FG
2:00 da manhã
L
52 °F ½ mi - 090° 090° 2 kt METAR LFBE 010000Z AUTO 09002KT 0750 R27/1300U FG SCT003 11/10 Q1020 TEMPO 0300 FG VV///
1:30 da manhã
L
54 °F ⅜ mi - Var 000° 0 kt METAR LFBE 302330Z AUTO 00000KT 1700 0700 R27/2300D BCFG NSC 12/11 Q1020 TEMPO 0300 FG VV///
1:00 da manhã
I
54 °F 1⅛ mi - Var 000° 0 kt METAR LFBE 302300Z AUTO 00000KT 9999 1800 NSC 12/11 Q1020 TEMPO 2000 BR BKN002
12:30 da manhã
V
55 °F 6¼ mi+ - Var 000° 0 kt METAR LFBE 302230Z AUTO 00000KT CAVOK 13/12 Q1020 TEMPO 2000 BR BKN002
12:00 da manhã
V
55 °F 6¼ mi+ - Var Var 3 kt METAR LFBE 302200Z AUTO VRB03KT CAVOK 13/12 Q1020 NOSIG

30 de junho de 2022

Hora Código Clima Temp. Visibilidade Tecto Vento METAR/SPECI
11:30 da tarde
V
57 °F 6¼ mi+ - 030° 030° 3 kt METAR LFBE 302130Z AUTO 03003KT 9999 FEW036 SCT045 14/13 Q1020 NOSIG
11:00 da tarde
V
57 °F 6¼ mi+ - Var Var 2 kt METAR LFBE 302100Z AUTO VRB02KT 9999 FEW045 SCT064 14/13 Q1020 NOSIG
10:30 da tarde
V
57 °F 6¼ mi+ 4.800 ft Var Var 1 kt METAR LFBE 302030Z AUTO VRB01KT 9999 FEW041 BKN048 14/13 Q1019 NOSIG
10:00 da tarde
V
59 °F 6¼ mi+ 10.000 ft 210° 210° 3 kt METAR LFBE 302000Z AUTO 21003KT 180V240 9999 SCT043 BKN100 15/13 Q1019 NOSIG
9:30 da tarde
V
61 °F 6¼ mi+ - 190° 190° 4 kt METAR LFBE 301930Z AUTO 19004KT CAVOK 16/13 Q1019 NOSIG
9:00 da tarde
V
61 °F 6¼ mi+ 10.000 ft 180° 180° 3 kt METAR LFBE 301900Z AUTO 18003KT 140V210 9999 FEW049 OVC100 16/14 Q1018 TEMPO 4000 SHRA FEW035CB BKN040TCU
8:30 da tarde
V
61 °F 6¼ mi+ - 170° 170° 4 kt METAR LFBE 301830Z AUTO 17004KT 140V200 CAVOK 16/14 Q1018 TEMPO 4000 SHRA FEW035CB BKN040TCU
8:00 da tarde
V
63 °F 6¼ mi+ 5.600 ft 140° 140° 3 kt METAR LFBE 301800Z AUTO 14003KT 100V170 9999 -RA FEW021 BKN056 OVC072 17/14 Q1018 TEMPO 4000 SHRA FEW035CB BKN040TCU
7:30 da tarde
V
63 °F 6¼ mi+ 3.500 ft Var Var 1 kt METAR LFBE 301730Z AUTO VRB01KT 9999 SCT021 BKN035 OVC054 17/12 Q1018 TEMPO 4000 SHRA FEW035CB BKN040TCU
7:00 da tarde
V
63 °F 6¼ mi+ 3.200 ft Var Var 2 kt METAR LFBE 301700Z AUTO VRB02KT 9999 SCT017 BKN032 BKN039 17/13 Q1018 TEMPO 4000 SHRA FEW035CB BKN040TCU
6:30 da tarde
M
63 °F 6¼ mi+ 2.400 ft Var Var 3 kt METAR LFBE 301630Z AUTO VRB03KT 9999 SCT017/// BKN024/// BKN062/// //////CB 17/14 Q1018 TEMPO 4000 SHRA
6:00 da tarde
M
63 °F 6¼ mi+ 2.000 ft Var Var 3 kt METAR LFBE 301600Z AUTO VRB03KT 9999 BKN020/// BKN028/// OVC076/// //////CB 17/13 Q1018 TEMPO 4000 SHRA
5:30 da tarde
M
63 °F 6¼ mi+ 2.400 ft Var Var 3 kt METAR LFBE 301530Z AUTO VRB03KT 9999 SCT018 BKN024 OVC084 17/13 Q1018 TEMPO 4000 SHRA FEW035CB BKN040TCU
5:00 da tarde
V
61 °F 6¼ mi+ 9.200 ft Var Var 2 kt METAR LFBE 301500Z AUTO VRB02KT 9999 FEW012 OVC092 16/13 Q1018 TEMPO 4000 SHRA FEW035CB BKN040TCU
4:30 da tarde
V
61 °F 6¼ mi+ 9.600 ft 200° 200° 3 kt METAR LFBE 301430Z AUTO 20003KT 170V240 9999 FEW010/// OVC096/// ///TCU 16/13 Q1018 TEMPO 4000 SHRA FEW035CB BKN040TCU
4:00 da tarde
V
59 °F 6¼ mi+ 9.000 ft Var Var 2 kt METAR LFBE 301400Z AUTO VRB02KT 9999 -RA FEW008/// SCT049/// OVC090/// ///TCU 15/13 Q1018 TEMPO 4000 SHRA FEW035CB BKN040TCU
3:30 da tarde
V
59 °F 6¼ mi+ 6.800 ft Var Var 2 kt METAR LFBE 301330Z AUTO VRB02KT 9999 -RA FEW025/// BKN068/// OVC088/// ///TCU 15/14 Q1018 TEMPO 4000 SHRA FEW035CB BKN040TCU
3:00 da tarde
V
59 °F 6¼ mi+ 3.600 ft 240° 240° 4 kt METAR LFBE 301300Z AUTO 24004KT 9999 RA SCT012/// SCT023/// BKN036/// //////TCU 15/14 Q1018 TEMPO 4500 -RA BKN012
2:30 da tarde
M
59 °F 5⅝ mi 2.800 ft Var Var 2 kt METAR LFBE 301230Z AUTO VRB02KT 9000 RA FEW008/// SCT021/// BKN028/// //////TCU 15/14 Q1017 TEMPO 4500 -RA BKN012
2:00 da tarde
V
59 °F 6¼ mi+ 6.000 ft Var Var 2 kt METAR LFBE 301200Z AUTO VRB02KT 9999 -RA FEW010/// SCT048/// BKN060/// //////TCU 15/13 Q1017 TEMPO 4500 -RA BKN012
1:30 da tarde
V
59 °F 6¼ mi+ 7.000 ft 270° 270° 3 kt METAR LFBE 301130Z AUTO 27003KT 9999 -RA FEW011/// SCT039/// OVC070/// //////TCU 15/13 Q1017 TEMPO 4500 -RA BKN012
1:00 da tarde
M
61 °F 6¼ mi+ 2.800 ft 260° 260° 5 kt METAR LFBE 301100Z AUTO 26005KT 9999 SCT011/// BKN028/// BKN048/// ///TCU 16/14 Q1017 TEMPO 4500 -RA BKN012
12:30 da tarde
M
59 °F 6¼ mi+ 2.300 ft 260° 260° 3 kt METAR LFBE 301030Z AUTO 26003KT 9999 -RA FEW009/// BKN023/// BKN047/// //////TCU 15/14 Q1017 TEMPO 4500 -RA BKN012
12:00 da tarde
V
59 °F 6¼ mi+ 6.000 ft 310° 310° 4 kt METAR LFBE 301000Z AUTO 31004KT 250V330 9999 FEW010/// BKN060/// OVC076/// //////TCU 15/13 Q1016 TEMPO 4500 -RA BKN012
11:30 da manhã
V
59 °F 6¼ mi+ 4.900 ft Var Var 3 kt METAR LFBE 300930Z AUTO VRB03KT 9999 FEW008 BKN049 OVC072 15/13 Q1016 TEMPO 4500 -RA BKN012
11:00 da manhã
V
59 °F 6¼ mi+ 4.600 ft Var Var 2 kt METAR LFBE 300900Z AUTO VRB02KT 9999 FEW008/// BKN046/// OVC056/// //////TCU 15/13 Q1016 TEMPO 4500 -RA BKN012
Dados mais antigos

Baixe nosso aplicativo

Fácil acesso a todas as condições meteorológicas da aviação no seu celular e no seu tablet.
Com muitas características não disponíveis no site, como suporte offline e uma lista pessoal de aeroportos.

Nós e terceiros acompanhamos seu comportamento na internet em nosso site com cookies. Se você continuar, nós assumimos que você concorda com nossa política de cookies. Saiba mais